sensor_id;sensor_type;location;lat;lon;timestamp;P1;durP1;ratioP1;P2;durP2;ratioP2
74941;SDS011;63506;49.346;8.798;2023-07-30T00:01:44;3.45;;;3.08;;
74941;SDS011;63506;49.346;8.798;2023-07-30T00:04:12;2.67;;;2.45;;
74941;SDS011;63506;49.346;8.798;2023-07-30T00:06:39;4.43;;;2.90;;
74941;SDS011;63506;49.346;8.798;2023-07-30T00:09:08;5.63;;;4.03;;
74941;SDS011;63506;49.346;8.798;2023-07-30T00:11:35;8.15;;;3.97;;
74941;SDS011;63506;49.346;8.798;2023-07-30T00:14:05;4.10;;;3.70;;
74941;SDS011;63506;49.346;8.798;2023-07-30T00:16:32;3.97;;;3.63;;
74941;SDS011;63506;49.346;8.798;2023-07-30T00:19:00;4.68;;;3.95;;
74941;SDS011;63506;49.346;8.798;2023-07-30T00:21:29;4.82;;;4.05;;
74941;SDS011;63506;49.346;8.798;2023-07-30T00:23:59;7.63;;;4.90;;
74941;SDS011;63506;49.346;8.798;2023-07-30T00:26:28;6.32;;;4.18;;
74941;SDS011;63506;49.346;8.798;2023-07-30T00:28:58;4.50;;;3.80;;
74941;SDS011;63506;49.346;8.798;2023-07-30T00:31:26;4.43;;;3.20;;
74941;SDS011;63506;49.346;8.798;2023-07-30T00:33:53;6.25;;;4.28;;
74941;SDS011;63506;49.346;8.798;2023-07-30T00:36:21;6.05;;;3.53;;
74941;SDS011;63506;49.346;8.798;2023-07-30T00:38:48;3.65;;;3.05;;
74941;SDS011;63506;49.346;8.798;2023-07-30T00:41:15;2.90;;;2.40;;
74941;SDS011;63506;49.346;8.798;2023-07-30T00:43:44;5.28;;;3.35;;
74941;SDS011;63506;49.346;8.798;2023-07-30T00:46:12;6.53;;;2.78;;
74941;SDS011;63506;49.346;8.798;2023-07-30T00:48:39;2.38;;;2.10;;
74941;SDS011;63506;49.346;8.798;2023-07-30T00:51:07;3.03;;;2.28;;
74941;SDS011;63506;49.346;8.798;2023-07-30T00:53:39;2.72;;;2.53;;
74941;SDS011;63506;49.346;8.798;2023-07-30T00:56:06;2.75;;;2.50;;
74941;SDS011;63506;49.346;8.798;2023-07-30T00:58:34;3.22;;;2.75;;
74941;SDS011;63506;49.346;8.798;2023-07-30T01:01:03;6.45;;;2.22;;
74941;SDS011;63506;49.346;8.798;2023-07-30T01:03:31;2.85;;;2.20;;
74941;SDS011;63506;49.346;8.798;2023-07-30T01:05:59;3.25;;;1.95;;
74941;SDS011;63506;49.346;8.798;2023-07-30T01:08:26;1.85;;;1.63;;
74941;SDS011;63506;49.346;8.798;2023-07-30T01:10:54;2.05;;;1.85;;
74941;SDS011;63506;49.346;8.798;2023-07-30T01:13:22;3.08;;;1.70;;
74941;SDS011;63506;49.346;8.798;2023-07-30T01:15:52;2.25;;;1.65;;
74941;SDS011;63506;49.346;8.798;2023-07-30T01:18:21;2.35;;;1.98;;
74941;SDS011;63506;49.346;8.798;2023-07-30T01:20:54;2.38;;;1.70;;
74941;SDS011;63506;49.346;8.798;2023-07-30T01:23:26;1.83;;;1.50;;
74941;SDS011;63506;49.346;8.798;2023-07-30T01:25:56;2.92;;;2.13;;
74941;SDS011;63506;49.346;8.798;2023-07-30T01:28:31;3.75;;;1.48;;
74941;SDS011;63506;49.346;8.798;2023-07-30T01:31:03;2.85;;;1.80;;
74941;SDS011;63506;49.346;8.798;2023-07-30T01:33:32;2.35;;;1.58;;
74941;SDS011;63506;49.346;8.798;2023-07-30T01:36:03;1.52;;;1.25;;
74941;SDS011;63506;49.346;8.798;2023-07-30T01:38:31;4.40;;;1.75;;
74941;SDS011;63506;49.346;8.798;2023-07-30T01:41:04;2.20;;;1.70;;
74941;SDS011;63506;49.346;8.798;2023-07-30T01:43:31;4.07;;;1.50;;
74941;SDS011;63506;49.346;8.798;2023-07-30T01:46:03;2.03;;;1.57;;
74941;SDS011;63506;49.346;8.798;2023-07-30T01:48:34;4.35;;;2.40;;
74941;SDS011;63506;49.346;8.798;2023-07-30T01:51:05;1.40;;;1.30;;
74941;SDS011;63506;49.346;8.798;2023-07-30T01:53:32;2.25;;;1.73;;
74941;SDS011;63506;49.346;8.798;2023-07-30T01:56:02;2.85;;;1.65;;
74941;SDS011;63506;49.346;8.798;2023-07-30T01:58:29;3.60;;;1.98;;
74941;SDS011;63506;49.346;8.798;2023-07-30T02:01:01;8.23;;;2.63;;
74941;SDS011;63506;49.346;8.798;2023-07-30T02:03:28;2.45;;;1.65;;
74941;SDS011;63506;49.346;8.798;2023-07-30T02:05:57;2.58;;;2.38;;
74941;SDS011;63506;49.346;8.798;2023-07-30T02:08:29;2.13;;;1.70;;
74941;SDS011;63506;49.346;8.798;2023-07-30T02:10:56;3.35;;;1.73;;
74941;SDS011;63506;49.346;8.798;2023-07-30T02:13:23;2.30;;;2.10;;
74941;SDS011;63506;49.346;8.798;2023-07-30T02:15:51;2.63;;;2.28;;
74941;SDS011;63506;49.346;8.798;2023-07-30T02:18:19;2.92;;;2.22;;
74941;SDS011;63506;49.346;8.798;2023-07-30T02:20:52;3.20;;;2.10;;
74941;SDS011;63506;49.346;8.798;2023-07-30T02:23:19;2.15;;;1.95;;
74941;SDS011;63506;49.346;8.798;2023-07-30T02:25:48;3.35;;;1.92;;
74941;SDS011;63506;49.346;8.798;2023-07-30T02:28:18;2.10;;;1.92;;
74941;SDS011;63506;49.346;8.798;2023-07-30T02:30:48;2.78;;;2.28;;
74941;SDS011;63506;49.346;8.798;2023-07-30T02:33:15;2.92;;;2.63;;
74941;SDS011;63506;49.346;8.798;2023-07-30T02:35:43;3.25;;;2.10;;
74941;SDS011;63506;49.346;8.798;2023-07-30T02:38:10;2.17;;;1.92;;
74941;SDS011;63506;49.346;8.798;2023-07-30T02:40:37;3.20;;;2.70;;
74941;SDS011;63506;49.346;8.798;2023-07-30T02:43:06;2.80;;;2.60;;
74941;SDS011;63506;49.346;8.798;2023-07-30T02:45:33;3.50;;;2.83;;
74941;SDS011;63506;49.346;8.798;2023-07-30T02:48:01;4.47;;;2.72;;
74941;SDS011;63506;49.346;8.798;2023-07-30T02:50:28;4.05;;;2.97;;
74941;SDS011;63506;49.346;8.798;2023-07-30T02:52:56;3.20;;;2.90;;
74941;SDS011;63506;49.346;8.798;2023-07-30T02:55:23;4.10;;;2.95;;
74941;SDS011;63506;49.346;8.798;2023-07-30T02:57:53;3.08;;;2.78;;
74941;SDS011;63506;49.346;8.798;2023-07-30T03:00:24;3.83;;;3.42;;
74941;SDS011;63506;49.346;8.798;2023-07-30T03:02:51;3.38;;;2.53;;
74941;SDS011;63506;49.346;8.798;2023-07-30T03:05:19;3.45;;;3.00;;
74941;SDS011;63506;49.346;8.798;2023-07-30T03:07:49;3.75;;;3.45;;
74941;SDS011;63506;49.346;8.798;2023-07-30T03:10:18;4.53;;;3.25;;
74941;SDS011;63506;49.346;8.798;2023-07-30T03:12:46;4.60;;;3.65;;
74941;SDS011;63506;49.346;8.798;2023-07-30T03:15:13;2.95;;;2.60;;
74941;SDS011;63506;49.346;8.798;2023-07-30T03:17:44;3.25;;;2.63;;
74941;SDS011;63506;49.346;8.798;2023-07-30T03:20:14;4.75;;;3.03;;
74941;SDS011;63506;49.346;8.798;2023-07-30T03:22:41;3.85;;;2.92;;
74941;SDS011;63506;49.346;8.798;2023-07-30T03:25:09;4.68;;;3.83;;
74941;SDS011;63506;49.346;8.798;2023-07-30T03:27:36;6.88;;;4.10;;
74941;SDS011;63506;49.346;8.798;2023-07-30T03:30:04;4.85;;;4.43;;
74941;SDS011;63506;49.346;8.798;2023-07-30T03:32:32;4.60;;;4.20;;
74941;SDS011;63506;49.346;8.798;2023-07-30T03:35:03;6.28;;;4.85;;
74941;SDS011;63506;49.346;8.798;2023-07-30T03:37:34;6.10;;;4.22;;
74941;SDS011;63506;49.346;8.798;2023-07-30T03:40:04;5.13;;;4.10;;
74941;SDS011;63506;49.346;8.798;2023-07-30T03:42:34;5.72;;;3.78;;
74941;SDS011;63506;49.346;8.798;2023-07-30T03:45:01;4.75;;;4.15;;
74941;SDS011;63506;49.346;8.798;2023-07-30T03:47:31;4.50;;;4.10;;
74941;SDS011;63506;49.346;8.798;2023-07-30T03:49:59;4.68;;;3.85;;
74941;SDS011;63506;49.346;8.798;2023-07-30T03:52:32;4.68;;;3.95;;
74941;SDS011;63506;49.346;8.798;2023-07-30T03:55:00;4.53;;;4.13;;
74941;SDS011;63506;49.346;8.798;2023-07-30T03:57:27;4.45;;;4.05;;
74941;SDS011;63506;49.346;8.798;2023-07-30T03:59:57;4.22;;;3.83;;
74941;SDS011;63506;49.346;8.798;2023-07-30T04:02:29;4.30;;;3.90;;
74941;SDS011;63506;49.346;8.798;2023-07-30T04:04:57;4.40;;;4.00;;
74941;SDS011;63506;49.346;8.798;2023-07-30T04:07:25;5.32;;;4.80;;
74941;SDS011;63506;49.346;8.798;2023-07-30T04:09:54;4.50;;;3.95;;
74941;SDS011;63506;49.346;8.798;2023-07-30T04:12:22;10.55;;;4.72;;
74941;SDS011;63506;49.346;8.798;2023-07-30T04:14:49;5.93;;;4.72;;
74941;SDS011;63506;49.346;8.798;2023-07-30T04:17:17;9.93;;;5.22;;
74941;SDS011;63506;49.346;8.798;2023-07-30T04:19:48;4.13;;;3.72;;
74941;SDS011;63506;49.346;8.798;2023-07-30T04:22:17;7.63;;;4.25;;
74941;SDS011;63506;49.346;8.798;2023-07-30T04:24:45;5.28;;;4.57;;
74941;SDS011;63506;49.346;8.798;2023-07-30T04:27:14;4.72;;;4.30;;
74941;SDS011;63506;49.346;8.798;2023-07-30T04:29:41;5.38;;;4.88;;
74941;SDS011;63506;49.346;8.798;2023-07-30T04:32:11;8.25;;;6.13;;
74941;SDS011;63506;49.346;8.798;2023-07-30T04:34:38;6.38;;;4.43;;
74941;SDS011;63506;49.346;8.798;2023-07-30T04:37:08;5.97;;;4.25;;
74941;SDS011;63506;49.346;8.798;2023-07-30T04:39:38;6.40;;;3.88;;
74941;SDS011;63506;49.346;8.798;2023-07-30T04:42:06;5.05;;;4.53;;
74941;SDS011;63506;49.346;8.798;2023-07-30T04:44:35;5.03;;;3.63;;
74941;SDS011;63506;49.346;8.798;2023-07-30T04:47:10;4.82;;;4.32;;
74941;SDS011;63506;49.346;8.798;2023-07-30T04:49:37;4.72;;;3.50;;
74941;SDS011;63506;49.346;8.798;2023-07-30T04:52:08;4.78;;;3.15;;
74941;SDS011;63506;49.346;8.798;2023-07-30T04:54:36;3.60;;;3.30;;
74941;SDS011;63506;49.346;8.798;2023-07-30T04:57:04;4.53;;;4.13;;
74941;SDS011;63506;49.346;8.798;2023-07-30T04:59:32;3.85;;;3.55;;
74941;SDS011;63506;49.346;8.798;2023-07-30T05:02:02;4.00;;;3.58;;
74941;SDS011;63506;49.346;8.798;2023-07-30T05:04:29;4.00;;;3.60;;
74941;SDS011;63506;49.346;8.798;2023-07-30T05:06:57;3.53;;;3.17;;
74941;SDS011;63506;49.346;8.798;2023-07-30T05:09:24;6.35;;;3.88;;
74941;SDS011;63506;49.346;8.798;2023-07-30T05:11:51;3.95;;;3.65;;
74941;SDS011;63506;49.346;8.798;2023-07-30T05:14:23;4.10;;;3.70;;
74941;SDS011;63506;49.346;8.798;2023-07-30T05:16:51;3.97;;;3.67;;
74941;SDS011;63506;49.346;8.798;2023-07-30T05:19:20;3.80;;;3.50;;
74941;SDS011;63506;49.346;8.798;2023-07-30T05:21:47;4.65;;;3.70;;
74941;SDS011;63506;49.346;8.798;2023-07-30T05:24:14;3.92;;;3.50;;
74941;SDS011;63506;49.346;8.798;2023-07-30T05:26:42;4.30;;;3.90;;
74941;SDS011;63506;49.346;8.798;2023-07-30T05:29:09;4.47;;;2.92;;
74941;SDS011;63506;49.346;8.798;2023-07-30T05:31:37;4.18;;;3.78;;
74941;SDS011;63506;49.346;8.798;2023-07-30T05:34:04;3.70;;;3.40;;
74941;SDS011;63506;49.346;8.798;2023-07-30T05:36:35;3.55;;;2.83;;
74941;SDS011;63506;49.346;8.798;2023-07-30T05:39:02;2.53;;;2.17;;
74941;SDS011;63506;49.346;8.798;2023-07-30T05:41:33;2.00;;;1.80;;
74941;SDS011;63506;49.346;8.798;2023-07-30T05:44:00;1.95;;;1.80;;
74941;SDS011;63506;49.346;8.798;2023-07-30T05:46:28;2.10;;;1.90;;
74941;SDS011;63506;49.346;8.798;2023-07-30T05:48:55;2.25;;;1.50;;
74941;SDS011;63506;49.346;8.798;2023-07-30T05:51:23;3.25;;;1.83;;
74941;SDS011;63506;49.346;8.798;2023-07-30T05:53:51;6.03;;;2.47;;
74941;SDS011;63506;49.346;8.798;2023-07-30T05:56:19;2.60;;;2.35;;
74941;SDS011;63506;49.346;8.798;2023-07-30T05:58:46;3.17;;;2.20;;
74941;SDS011;63506;49.346;8.798;2023-07-30T06:01:14;5.10;;;2.53;;
74941;SDS011;63506;49.346;8.798;2023-07-30T06:03:41;5.28;;;2.97;;
74941;SDS011;63506;49.346;8.798;2023-07-30T06:06:11;3.17;;;2.70;;
74941;SDS011;63506;49.346;8.798;2023-07-30T06:08:38;7.13;;;3.55;;
74941;SDS011;63506;49.346;8.798;2023-07-30T06:11:07;6.13;;;3.08;;
74941;SDS011;63506;49.346;8.798;2023-07-30T06:13:35;3.83;;;2.78;;
74941;SDS011;63506;49.346;8.798;2023-07-30T06:16:03;6.72;;;3.40;;
74941;SDS011;63506;49.346;8.798;2023-07-30T06:18:30;3.38;;;2.92;;
74941;SDS011;63506;49.346;8.798;2023-07-30T06:21:00;4.57;;;2.90;;
74941;SDS011;63506;49.346;8.798;2023-07-30T06:23:27;3.65;;;3.08;;
74941;SDS011;63506;49.346;8.798;2023-07-30T06:25:55;3.55;;;2.95;;
74941;SDS011;63506;49.346;8.798;2023-07-30T06:28:24;4.07;;;3.58;;
74941;SDS011;63506;49.346;8.798;2023-07-30T06:30:51;4.28;;;3.88;;
74941;SDS011;63506;49.346;8.798;2023-07-30T06:33:19;4.18;;;3.78;;
74941;SDS011;63506;49.346;8.798;2023-07-30T06:35:46;4.38;;;4.00;;
74941;SDS011;63506;49.346;8.798;2023-07-30T06:38:14;5.10;;;4.60;;
74941;SDS011;63506;49.346;8.798;2023-07-30T06:40:41;3.85;;;3.55;;
74941;SDS011;63506;49.346;8.798;2023-07-30T06:43:09;3.65;;;3.35;;
74941;SDS011;63506;49.346;8.798;2023-07-30T06:45:41;4.18;;;3.80;;
74941;SDS011;63506;49.346;8.798;2023-07-30T06:48:08;4.57;;;3.63;;
74941;SDS011;63506;49.346;8.798;2023-07-30T06:50:35;4.70;;;4.28;;
74941;SDS011;63506;49.346;8.798;2023-07-30T06:53:05;7.07;;;3.58;;
74941;SDS011;63506;49.346;8.798;2023-07-30T06:55:35;4.18;;;3.72;;
74941;SDS011;63506;49.346;8.798;2023-07-30T06:58:02;5.53;;;4.10;;
74941;SDS011;63506;49.346;8.798;2023-07-30T07:00:32;4.72;;;4.00;;
74941;SDS011;63506;49.346;8.798;2023-07-30T07:03:03;6.18;;;2.88;;
74941;SDS011;63506;49.346;8.798;2023-07-30T07:05:33;12.07;;;4.00;;
74941;SDS011;63506;49.346;8.798;2023-07-30T07:08:03;3.92;;;3.63;;
74941;SDS011;63506;49.346;8.798;2023-07-30T07:10:31;3.53;;;3.22;;
74941;SDS011;63506;49.346;8.798;2023-07-30T07:12:59;3.28;;;2.80;;
74941;SDS011;63506;49.346;8.798;2023-07-30T07:15:26;3.65;;;2.72;;
74941;SDS011;63506;49.346;8.798;2023-07-30T07:17:53;3.70;;;3.38;;
74941;SDS011;63506;49.346;8.798;2023-07-30T07:20:24;3.05;;;2.65;;
74941;SDS011;63506;49.346;8.798;2023-07-30T07:22:53;6.95;;;3.88;;
74941;SDS011;63506;49.346;8.798;2023-07-30T07:25:22;2.72;;;2.53;;
74941;SDS011;63506;49.346;8.798;2023-07-30T07:27:53;3.58;;;3.28;;
74941;SDS011;63506;49.346;8.798;2023-07-30T07:30:22;5.10;;;3.95;;
74941;SDS011;63506;49.346;8.798;2023-07-30T07:32:50;5.03;;;3.90;;
74941;SDS011;63506;49.346;8.798;2023-07-30T07:35:19;3.50;;;3.20;;
74941;SDS011;63506;49.346;8.798;2023-07-30T07:37:48;4.10;;;3.17;;
74941;SDS011;63506;49.346;8.798;2023-07-30T07:40:16;15.93;;;4.13;;
74941;SDS011;63506;49.346;8.798;2023-07-30T07:42:45;3.85;;;3.22;;
74941;SDS011;63506;49.346;8.798;2023-07-30T07:45:13;8.30;;;3.10;;
74941;SDS011;63506;49.346;8.798;2023-07-30T07:47:43;3.45;;;3.10;;
74941;SDS011;63506;49.346;8.798;2023-07-30T07:50:13;4.78;;;3.63;;
74941;SDS011;63506;49.346;8.798;2023-07-30T07:52:41;4.15;;;3.40;;
74941;SDS011;63506;49.346;8.798;2023-07-30T07:55:10;4.05;;;3.33;;
74941;SDS011;63506;49.346;8.798;2023-07-30T07:57:38;3.75;;;3.00;;
74941;SDS011;63506;49.346;8.798;2023-07-30T08:00:05;3.30;;;3.00;;
74941;SDS011;63506;49.346;8.798;2023-07-30T08:02:38;5.13;;;3.03;;
74941;SDS011;63506;49.346;8.798;2023-07-30T08:05:05;3.25;;;2.95;;
74941;SDS011;63506;49.346;8.798;2023-07-30T08:07:33;4.00;;;2.72;;
74941;SDS011;63506;49.346;8.798;2023-07-30T08:10:03;3.08;;;2.78;;
74941;SDS011;63506;49.346;8.798;2023-07-30T08:12:35;3.92;;;2.67;;
74941;SDS011;63506;49.346;8.798;2023-07-30T08:15:03;2.53;;;2.22;;
74941;SDS011;63506;49.346;8.798;2023-07-30T08:17:31;2.63;;;2.10;;
74941;SDS011;63506;49.346;8.798;2023-07-30T08:19:58;2.47;;;2.28;;
74941;SDS011;63506;49.346;8.798;2023-07-30T08:22:26;2.97;;;2.13;;
74941;SDS011;63506;49.346;8.798;2023-07-30T08:24:53;3.40;;;2.55;;
74941;SDS011;63506;49.346;8.798;2023-07-30T08:27:20;3.10;;;2.47;;
74941;SDS011;63506;49.346;8.798;2023-07-30T08:29:49;2.72;;;2.53;;
74941;SDS011;63506;49.346;8.798;2023-07-30T08:32:19;3.53;;;2.45;;
74941;SDS011;63506;49.346;8.798;2023-07-30T08:34:47;2.97;;;2.67;;
74941;SDS011;63506;49.346;8.798;2023-07-30T08:37:16;2.75;;;2.20;;
74941;SDS011;63506;49.346;8.798;2023-07-30T08:39:46;4.72;;;2.45;;
74941;SDS011;63506;49.346;8.798;2023-07-30T08:42:13;2.83;;;2.22;;
74941;SDS011;63506;49.346;8.798;2023-07-30T08:44:41;2.35;;;2.00;;
74941;SDS011;63506;49.346;8.798;2023-07-30T08:47:10;3.50;;;1.98;;
74941;SDS011;63506;49.346;8.798;2023-07-30T08:49:37;4.05;;;2.80;;
74941;SDS011;63506;49.346;8.798;2023-07-30T08:52:06;3.65;;;2.05;;
74941;SDS011;63506;49.346;8.798;2023-07-30T08:54:36;2.95;;;2.67;;
74941;SDS011;63506;49.346;8.798;2023-07-30T08:57:04;3.30;;;2.35;;
74941;SDS011;63506;49.346;8.798;2023-07-30T08:59:33;4.88;;;2.00;;
74941;SDS011;63506;49.346;8.798;2023-07-30T09:02:04;2.63;;;2.13;;
74941;SDS011;63506;49.346;8.798;2023-07-30T09:04:40;3.15;;;2.20;;
74941;SDS011;63506;49.346;8.798;2023-07-30T09:07:08;4.82;;;1.90;;
74941;SDS011;63506;49.346;8.798;2023-07-30T09:09:36;6.60;;;2.65;;
74941;SDS011;63506;49.346;8.798;2023-07-30T09:12:04;2.80;;;2.17;;
74941;SDS011;63506;49.346;8.798;2023-07-30T09:14:40;3.45;;;1.77;;
74941;SDS011;63506;49.346;8.798;2023-07-30T09:17:11;3.05;;;2.05;;
74941;SDS011;63506;49.346;8.798;2023-07-30T09:19:43;4.22;;;2.05;;
74941;SDS011;63506;49.346;8.798;2023-07-30T09:22:24;3.58;;;1.67;;
74941;SDS011;63506;49.346;8.798;2023-07-30T09:24:53;1.50;;;1.35;;
74941;SDS011;63506;49.346;8.798;2023-07-30T09:27:21;3.85;;;1.98;;
74941;SDS011;63506;49.346;8.798;2023-07-30T09:29:53;4.70;;;1.75;;
74941;SDS011;63506;49.346;8.798;2023-07-30T09:32:26;4.07;;;2.03;;
74941;SDS011;63506;49.346;8.798;2023-07-30T09:34:54;1.95;;;1.67;;
74941;SDS011;63506;49.346;8.798;2023-07-30T09:37:24;2.92;;;1.55;;
74941;SDS011;63506;49.346;8.798;2023-07-30T09:39:52;3.38;;;1.55;;
74941;SDS011;63506;49.346;8.798;2023-07-30T09:42:26;2.33;;;1.95;;
74941;SDS011;63506;49.346;8.798;2023-07-30T09:44:54;4.50;;;1.60;;
74941;SDS011;63506;49.346;8.798;2023-07-30T09:47:27;1.88;;;1.77;;
74941;SDS011;63506;49.346;8.798;2023-07-30T09:49:54;2.45;;;1.77;;
74941;SDS011;63506;49.346;8.798;2023-07-30T09:52:22;2.30;;;1.73;;
74941;SDS011;63506;49.346;8.798;2023-07-30T09:54:49;2.95;;;1.30;;
74941;SDS011;63506;49.346;8.798;2023-07-30T09:57:22;3.00;;;2.13;;
74941;SDS011;63506;49.346;8.798;2023-07-30T09:59:50;3.30;;;1.65;;
74941;SDS011;63506;49.346;8.798;2023-07-30T10:02:19;2.60;;;1.48;;
74941;SDS011;63506;49.346;8.798;2023-07-30T10:04:49;2.30;;;1.67;;
74941;SDS011;63506;49.346;8.798;2023-07-30T10:07:19;1.48;;;1.35;;
74941;SDS011;63506;49.346;8.798;2023-07-30T10:09:47;4.93;;;2.65;;
74941;SDS011;63506;49.346;8.798;2023-07-30T10:12:20;1.83;;;1.50;;
74941;SDS011;63506;49.346;8.798;2023-07-30T10:14:49;1.60;;;1.50;;
74941;SDS011;63506;49.346;8.798;2023-07-30T10:17:19;2.30;;;1.73;;
74941;SDS011;63506;49.346;8.798;2023-07-30T10:19:50;5.32;;;2.30;;
74941;SDS011;63506;49.346;8.798;2023-07-30T10:22:23;1.23;;;1.13;;
74941;SDS011;63506;49.346;8.798;2023-07-30T10:24:58;2.15;;;1.70;;
74941;SDS011;63506;49.346;8.798;2023-07-30T10:27:26;3.35;;;2.35;;
74941;SDS011;63506;49.346;8.798;2023-07-30T10:30:11;1.80;;;1.70;;
74941;SDS011;63506;49.346;8.798;2023-07-30T10:32:40;2.10;;;1.83;;
74941;SDS011;63506;49.346;8.798;2023-07-30T10:35:09;2.63;;;1.85;;
74941;SDS011;63506;49.346;8.798;2023-07-30T10:38:17;4.45;;;1.33;;
74941;SDS011;63506;49.346;8.798;2023-07-30T10:47:26;1.63;;;1.50;;
74941;SDS011;63506;49.346;8.798;2023-07-30T10:49:55;1.63;;;1.15;;
74941;SDS011;63506;49.346;8.798;2023-07-30T10:52:29;3.70;;;1.23;;
74941;SDS011;63506;49.346;8.798;2023-07-30T10:54:59;1.52;;;1.27;;
74941;SDS011;63506;49.346;8.798;2023-07-30T10:57:29;1.88;;;1.13;;
74941;SDS011;63506;49.346;8.798;2023-07-30T11:00:00;1.88;;;1.10;;
74941;SDS011;63506;49.346;8.798;2023-07-30T11:02:30;1.95;;;1.38;;
74941;SDS011;63506;49.346;8.798;2023-07-30T11:05:10;1.60;;;1.13;;
74941;SDS011;63506;49.346;8.798;2023-07-30T11:07:39;1.73;;;1.10;;
74941;SDS011;63506;49.346;8.798;2023-07-30T11:10:16;1.35;;;1.10;;
74941;SDS011;63506;49.346;8.798;2023-07-30T11:12:44;1.85;;;1.45;;
74941;SDS011;63506;49.346;8.798;2023-07-30T11:15:13;3.17;;;1.52;;
74941;SDS011;63506;49.346;8.798;2023-07-30T11:17:42;1.48;;;0.93;;
74941;SDS011;63506;49.346;8.798;2023-07-30T11:20:21;1.23;;;0.93;;
74941;SDS011;63506;49.346;8.798;2023-07-30T11:22:51;1.77;;;1.10;;
74941;SDS011;63506;49.346;8.798;2023-07-30T11:25:18;6.68;;;1.33;;
74941;SDS011;63506;49.346;8.798;2023-07-30T11:27:52;1.65;;;1.30;;
74941;SDS011;63506;49.346;8.798;2023-07-30T11:30:19;2.33;;;1.80;;
74941;SDS011;63506;49.346;8.798;2023-07-30T11:32:48;5.32;;;1.45;;
74941;SDS011;63506;49.346;8.798;2023-07-30T11:35:16;1.08;;;0.80;;
74941;SDS011;63506;49.346;8.798;2023-07-30T11:37:46;1.48;;;1.30;;
74941;SDS011;63506;49.346;8.798;2023-07-30T11:40:18;1.90;;;1.13;;
74941;SDS011;63506;49.346;8.798;2023-07-30T11:42:45;1.65;;;1.20;;
74941;SDS011;63506;49.346;8.798;2023-07-30T11:45:19;3.80;;;2.35;;
74941;SDS011;63506;49.346;8.798;2023-07-30T11:47:47;3.58;;;1.30;;
74941;SDS011;63506;49.346;8.798;2023-07-30T11:50:18;3.67;;;1.42;;
74941;SDS011;63506;49.346;8.798;2023-07-30T11:52:51;2.30;;;1.05;;
74941;SDS011;63506;49.346;8.798;2023-07-30T11:55:23;1.45;;;1.23;;
74941;SDS011;63506;49.346;8.798;2023-07-30T11:57:51;1.38;;;0.90;;
74941;SDS011;63506;49.346;8.798;2023-07-30T12:00:20;2.80;;;1.85;;
74941;SDS011;63506;49.346;8.798;2023-07-30T12:02:48;1.40;;;1.30;;
74941;SDS011;63506;49.346;8.798;2023-07-30T12:05:17;1.45;;;1.05;;
74941;SDS011;63506;49.346;8.798;2023-07-30T12:07:46;1.33;;;1.02;;
74941;SDS011;63506;49.346;8.798;2023-07-30T12:10:14;1.77;;;1.15;;
74941;SDS011;63506;49.346;8.798;2023-07-30T12:12:46;2.40;;;1.35;;
74941;SDS011;63506;49.346;8.798;2023-07-30T12:15:16;1.98;;;1.60;;
74941;SDS011;63506;49.346;8.798;2023-07-30T12:17:43;1.83;;;1.45;;
74941;SDS011;63506;49.346;8.798;2023-07-30T12:20:11;1.30;;;1.00;;
74941;SDS011;63506;49.346;8.798;2023-07-30T12:22:39;2.92;;;1.10;;
74941;SDS011;63506;49.346;8.798;2023-07-30T12:25:08;1.33;;;0.90;;
74941;SDS011;63506;49.346;8.798;2023-07-30T12:27:36;2.25;;;1.40;;
74941;SDS011;63506;49.346;8.798;2023-07-30T12:30:06;1.92;;;1.42;;
74941;SDS011;63506;49.346;8.798;2023-07-30T12:32:34;1.10;;;0.80;;
74941;SDS011;63506;49.346;8.798;2023-07-30T12:35:01;1.45;;;1.05;;
74941;SDS011;63506;49.346;8.798;2023-07-30T12:37:31;2.45;;;1.23;;
74941;SDS011;63506;49.346;8.798;2023-07-30T12:40:03;3.75;;;1.38;;
74941;SDS011;63506;49.346;8.798;2023-07-30T12:42:32;1.92;;;1.02;;
74941;SDS011;63506;49.346;8.798;2023-07-30T12:45:06;1.73;;;1.48;;
74941;SDS011;63506;49.346;8.798;2023-07-30T12:47:36;2.83;;;1.17;;
74941;SDS011;63506;49.346;8.798;2023-07-30T12:50:04;1.30;;;1.00;;
74941;SDS011;63506;49.346;8.798;2023-07-30T12:52:34;2.58;;;1.50;;
74941;SDS011;63506;49.346;8.798;2023-07-30T12:55:05;4.00;;;1.50;;
74941;SDS011;63506;49.346;8.798;2023-07-30T12:57:32;3.33;;;1.60;;
74941;SDS011;63506;49.346;8.798;2023-07-30T13:00:04;1.77;;;1.08;;
74941;SDS011;63506;49.346;8.798;2023-07-30T13:02:36;2.03;;;0.98;;
74941;SDS011;63506;49.346;8.798;2023-07-30T13:05:09;4.18;;;1.55;;
74941;SDS011;63506;49.346;8.798;2023-07-30T13:07:39;1.65;;;0.80;;
74941;SDS011;63506;49.346;8.798;2023-07-30T13:10:09;2.25;;;1.25;;
74941;SDS011;63506;49.346;8.798;2023-07-30T13:12:36;3.15;;;1.42;;
74941;SDS011;63506;49.346;8.798;2023-07-30T13:15:06;2.95;;;1.10;;
74941;SDS011;63506;49.346;8.798;2023-07-30T13:17:34;4.95;;;1.25;;
74941;SDS011;63506;49.346;8.798;2023-07-30T13:20:02;2.17;;;1.30;;
74941;SDS011;63506;49.346;8.798;2023-07-30T13:22:32;2.25;;;1.30;;
74941;SDS011;63506;49.346;8.798;2023-07-30T13:24:59;1.95;;;1.00;;
74941;SDS011;63506;49.346;8.798;2023-07-30T13:27:29;4.00;;;1.67;;
74941;SDS011;63506;49.346;8.798;2023-07-30T13:29:57;1.90;;;1.17;;
74941;SDS011;63506;49.346;8.798;2023-07-30T13:32:26;2.03;;;1.45;;
74941;SDS011;63506;49.346;8.798;2023-07-30T13:34:53;4.88;;;1.00;;
74941;SDS011;63506;49.346;8.798;2023-07-30T13:37:20;1.48;;;1.10;;
74941;SDS011;63506;49.346;8.798;2023-07-30T13:39:48;5.53;;;1.70;;
74941;SDS011;63506;49.346;8.798;2023-07-30T13:42:15;2.80;;;1.65;;
74941;SDS011;63506;49.346;8.798;2023-07-30T13:44:43;2.42;;;1.08;;
74941;SDS011;63506;49.346;8.798;2023-07-30T13:47:12;2.72;;;1.30;;
74941;SDS011;63506;49.346;8.798;2023-07-30T13:49:41;2.97;;;1.40;;
74941;SDS011;63506;49.346;8.798;2023-07-30T13:52:16;3.28;;;1.40;;
74941;SDS011;63506;49.346;8.798;2023-07-30T13:54:46;4.25;;;2.05;;
74941;SDS011;63506;49.346;8.798;2023-07-30T13:57:17;3.00;;;1.13;;
74941;SDS011;63506;49.346;8.798;2023-07-30T13:59:48;3.92;;;1.60;;
74941;SDS011;63506;49.346;8.798;2023-07-30T14:02:16;2.10;;;1.10;;
74941;SDS011;63506;49.346;8.798;2023-07-30T14:04:44;3.03;;;1.33;;
74941;SDS011;63506;49.346;8.798;2023-07-30T14:07:14;2.25;;;1.50;;
74941;SDS011;63506;49.346;8.798;2023-07-30T14:09:42;2.88;;;1.60;;
74941;SDS011;63506;49.346;8.798;2023-07-30T14:12:14;2.58;;;1.23;;
74941;SDS011;63506;49.346;8.798;2023-07-30T14:14:41;4.18;;;1.58;;
74941;SDS011;63506;49.346;8.798;2023-07-30T14:17:09;2.13;;;1.50;;
74941;SDS011;63506;49.346;8.798;2023-07-30T14:19:38;3.05;;;0.98;;
74941;SDS011;63506;49.346;8.798;2023-07-30T14:22:07;2.95;;;1.20;;
74941;SDS011;63506;49.346;8.798;2023-07-30T14:24:36;8.38;;;1.73;;
74941;SDS011;63506;49.346;8.798;2023-07-30T14:27:05;2.35;;;1.00;;
74941;SDS011;63506;49.346;8.798;2023-07-30T14:29:35;5.28;;;1.42;;
74941;SDS011;63506;49.346;8.798;2023-07-30T14:32:02;3.13;;;1.58;;
74941;SDS011;63506;49.346;8.798;2023-07-30T14:34:30;1.63;;;1.08;;
74941;SDS011;63506;49.346;8.798;2023-07-30T14:36:57;2.50;;;1.55;;
74941;SDS011;63506;49.346;8.798;2023-07-30T14:39:26;3.05;;;1.65;;
74941;SDS011;63506;49.346;8.798;2023-07-30T14:41:53;2.28;;;1.40;;
74941;SDS011;63506;49.346;8.798;2023-07-30T14:44:21;2.25;;;1.63;;
74941;SDS011;63506;49.346;8.798;2023-07-30T14:46:51;3.15;;;1.60;;
74941;SDS011;63506;49.346;8.798;2023-07-30T14:49:19;2.92;;;1.25;;
74941;SDS011;63506;49.346;8.798;2023-07-30T14:51:46;4.28;;;1.70;;
74941;SDS011;63506;49.346;8.798;2023-07-30T14:54:17;7.72;;;1.40;;
74941;SDS011;63506;49.346;8.798;2023-07-30T14:56:46;5.78;;;1.65;;
74941;SDS011;63506;49.346;8.798;2023-07-30T14:59:13;3.33;;;1.30;;
74941;SDS011;63506;49.346;8.798;2023-07-30T15:01:43;6.32;;;2.13;;
74941;SDS011;63506;49.346;8.798;2023-07-30T15:04:10;2.40;;;1.75;;
74941;SDS011;63506;49.346;8.798;2023-07-30T15:06:37;4.82;;;1.60;;